createdAt,value
2019-04-16T00:00:46.731Z,12.37
2019-04-16T00:03:17.181Z,12.03
2019-04-16T00:05:48.061Z,12.20
2019-04-16T00:08:27.914Z,12.90
2019-04-16T00:10:54.218Z,12.87
2019-04-16T00:13:31.134Z,12.03
2019-04-16T00:16:01.978Z,12.00
2019-04-16T00:18:31.207Z,12.50
2019-04-16T00:21:15.698Z,12.40
2019-04-16T00:24:05.033Z,12.03
2019-04-16T00:26:34.597Z,12.10
2019-04-16T00:29:03.810Z,11.57
2019-04-16T00:31:34.431Z,11.40
2019-04-16T00:34:04.503Z,11.80
2019-04-16T00:36:33.717Z,12.03
2019-04-16T00:39:06.158Z,11.80
2019-04-16T00:41:35.608Z,11.30
2019-04-16T00:44:04.877Z,11.30
2019-04-16T00:46:37.001Z,11.60
2019-04-16T00:49:06.230Z,12.17
2019-04-16T00:51:36.522Z,12.23
2019-04-16T00:54:09.692Z,11.60
2019-04-16T00:56:39.830Z,11.90
2019-04-16T00:59:10.750Z,12.93
2019-04-16T01:01:42.714Z,11.80
2019-04-16T01:04:11.986Z,11.97
2019-04-16T01:06:41.470Z,11.87
2019-04-16T01:09:11.115Z,11.90
2019-04-16T01:11:40.330Z,11.70
2019-04-16T01:14:13.133Z,11.60
2019-04-16T01:16:52.956Z,11.53
2019-04-16T01:19:22.162Z,12.10
2019-04-16T01:21:55.855Z,11.20
2019-04-16T01:24:36.087Z,11.63
2019-04-16T01:27:05.723Z,10.40
2019-04-16T01:29:35.016Z,13.07
2019-04-16T01:32:10.640Z,10.93
2019-04-16T01:34:49.177Z,10.93
2019-04-16T01:37:36.534Z,11.43
2019-04-16T01:40:18.320Z,11.60
2019-04-16T01:42:46.666Z,10.77
2019-04-16T01:45:15.869Z,11.33
2019-04-16T01:47:45.085Z,10.80
2019-04-16T01:50:14.280Z,12.00
2019-04-16T01:52:43.799Z,11.47
2019-04-16T01:55:13.064Z,11.60
2019-04-16T01:57:42.279Z,11.03
2019-04-16T02:01:11.015Z,10.70
2019-04-16T02:03:09.274Z,11.70
2019-04-16T02:05:40.137Z,11.17
2019-04-16T02:08:09.325Z,11.40
2019-04-16T02:10:39.133Z,11.37
2019-04-16T02:13:08.381Z,11.30
2019-04-16T02:15:37.598Z,11.00
2019-04-16T02:18:06.985Z,11.47
2019-04-16T02:20:38.428Z,10.23
2019-04-16T02:23:07.266Z,10.60
2019-04-16T02:25:36.490Z,11.73
2019-04-16T02:28:05.783Z,11.87
2019-04-16T02:30:39.339Z,11.37
2019-04-16T02:33:11.888Z,11.03
2019-04-16T02:35:50.245Z,11.73
2019-04-16T02:38:26.851Z,10.83
2019-04-16T02:40:58.698Z,12.03
2019-04-16T02:43:29.086Z,11.77
2019-04-16T02:45:58.777Z,10.60
2019-04-16T02:48:28.250Z,10.87
2019-04-16T02:51:05.354Z,11.13
2019-04-16T02:54:36.586Z,11.80
2019-04-16T02:56:52.110Z,10.80
2019-04-16T02:59:23.934Z,10.80
2019-04-16T03:02:00.778Z,9.60
2019-04-16T03:04:31.650Z,10.80
2019-04-16T03:07:03.402Z,11.50
2019-04-16T03:09:32.743Z,10.87
2019-04-16T03:12:04.946Z,11.40
2019-04-16T03:14:35.752Z,10.90
2019-04-16T03:17:10.603Z,10.87
2019-04-16T03:19:42.050Z,11.47
2019-04-16T03:22:13.234Z,10.87
2019-04-16T03:25:35.732Z,10.77
2019-04-16T03:27:45.007Z,11.63
2019-04-16T03:30:40.250Z,11.00
2019-04-16T03:33:15.788Z,10.17
2019-04-16T03:35:46.961Z,9.57
2019-04-16T03:38:19.067Z,11.37
2019-04-16T03:40:50.702Z,10.47
2019-04-16T03:43:24.354Z,9.73
2019-04-16T03:45:53.590Z,11.17
2019-04-16T03:48:25.684Z,11.73
2019-04-16T03:53:49.608Z,10.77
2019-04-16T03:56:22.509Z,10.90
2019-04-16T03:58:59.283Z,11.10
2019-04-16T04:01:39.137Z,10.60
2019-04-16T04:04:09.974Z,11.20
2019-04-16T04:06:40.476Z,11.23
2019-04-16T04:09:18.953Z,10.90
2019-04-16T04:11:51.257Z,10.70
2019-04-16T04:14:24.111Z,11.10
2019-04-16T04:17:12.117Z,10.67
2019-04-16T04:20:14.633Z,11.00
2019-04-16T04:22:42.371Z,11.20
2019-04-16T04:25:38.612Z,9.87
2019-04-16T04:30:35.879Z,10.73
2019-04-16T04:31:21.424Z,11.03
2019-04-16T04:33:44.146Z,10.57
2019-04-16T04:39:38.421Z,11.60
2019-04-16T04:42:19.176Z,11.90
2019-04-16T04:47:52.366Z,10.77
2019-04-16T04:50:23.342Z,10.97
2019-04-16T04:53:06.338Z,11.33
2019-04-16T04:55:45.520Z,11.03
2019-04-16T04:58:19.946Z,11.17
2019-04-16T05:01:03.929Z,11.60
2019-04-16T05:06:38.230Z,11.47
2019-04-16T05:09:07.623Z,10.80
2019-04-16T05:11:36.830Z,11.53
2019-04-16T05:14:06.379Z,10.83
2019-04-16T05:16:35.586Z,11.60
2019-04-16T05:19:04.814Z,11.00
2019-04-16T05:21:34.011Z,11.63
2019-04-16T05:24:03.233Z,11.00
2019-04-16T05:26:33.505Z,10.10
2019-04-16T05:29:16.044Z,12.33
2019-04-16T05:31:43.584Z,11.13
2019-04-16T05:34:13.077Z,11.80
2019-04-16T05:36:46.250Z,10.60
2019-04-16T05:39:13.188Z,11.07
2019-04-16T05:41:42.415Z,11.73
2019-04-16T05:44:11.614Z,11.27
2019-04-16T05:46:41.824Z,12.53
2019-04-16T05:49:11.726Z,11.63
2019-04-16T05:51:40.941Z,12.03
2019-04-16T05:54:28.367Z,12.00
2019-04-16T05:57:02.134Z,12.10
2019-04-16T05:59:33.776Z,11.67
2019-04-16T06:02:09.672Z,11.07
2019-04-16T06:04:38.875Z,11.07
2019-04-16T06:07:08.111Z,11.00
2019-04-16T06:09:37.312Z,10.63
2019-04-16T06:12:08.918Z,10.70
2019-04-16T06:14:39.367Z,10.63
2019-04-16T06:17:25.228Z,10.20
2019-04-16T06:19:54.674Z,11.07
2019-04-16T06:22:43.590Z,9.40
2019-04-16T06:25:17.042Z,9.80
2019-04-16T06:27:47.925Z,10.60
2019-04-16T06:30:34.987Z,12.13
2019-04-16T06:33:06.159Z,10.93
2019-04-16T06:35:53.992Z,11.40
2019-04-16T06:38:24.845Z,10.60
2019-04-16T06:40:55.710Z,9.93
2019-04-16T06:43:29.486Z,11.20
2019-04-16T06:46:00.503Z,10.50
2019-04-16T06:48:38.702Z,9.83
2019-04-16T06:51:12.536Z,10.63
2019-04-16T06:53:42.192Z,11.03
2019-04-16T06:56:20.673Z,11.23
2019-04-16T06:58:56.795Z,10.97
2019-04-16T07:01:36.679Z,11.37
2019-04-16T07:04:07.010Z,11.67
2019-04-16T07:06:46.854Z,10.53
2019-04-16T07:09:30.942Z,10.70
2019-04-16T07:11:59.343Z,10.23
2019-04-16T07:14:28.582Z,10.13
2019-04-16T07:17:00.107Z,11.23
2019-04-16T07:19:29.015Z,11.20
2019-04-16T07:21:59.387Z,12.33
2019-04-16T07:24:30.775Z,12.30
2019-04-16T07:26:59.564Z,11.63
2019-04-16T07:29:39.283Z,13.37
2019-04-16T07:32:22.244Z,11.90
2019-04-16T07:34:56.067Z,11.73
2019-04-16T07:37:43.440Z,12.57
2019-04-16T07:40:17.282Z,11.80
2019-04-16T07:42:57.944Z,11.57
2019-04-16T07:45:26.655Z,11.37
2019-04-16T07:48:09.735Z,12.10
2019-04-16T07:50:40.611Z,12.93
2019-04-16T07:53:14.353Z,12.00
2019-04-16T07:55:49.994Z,12.30
2019-04-16T07:58:19.199Z,12.30
2019-04-16T08:00:48.439Z,11.70
2019-04-16T08:03:17.667Z,12.73
2019-04-16T08:05:46.897Z,13.50
2019-04-16T08:08:16.104Z,12.60
2019-04-16T08:10:45.327Z,11.63
2019-04-16T08:13:17.277Z,12.30
2019-04-16T08:15:46.946Z,13.37
2019-04-16T08:18:17.154Z,13.53
2019-04-16T08:21:00.041Z,12.23
2019-04-16T08:23:31.253Z,13.10
2019-04-16T08:26:04.327Z,11.70
2019-04-16T08:28:33.025Z,13.40
2019-04-16T08:31:03.003Z,14.17
2019-04-16T08:33:32.279Z,12.53
2019-04-16T08:36:01.486Z,12.93
2019-04-16T08:38:34.896Z,13.40
2019-04-16T08:41:02.909Z,13.70
2019-04-16T08:43:32.202Z,13.67
2019-04-16T08:46:01.563Z,12.40
2019-04-16T08:48:30.814Z,14.20
2019-04-16T08:51:00.318Z,14.27
2019-04-16T08:53:29.544Z,13.70
2019-04-16T08:55:59.029Z,14.37
2019-04-16T08:58:28.243Z,12.93
2019-04-16T09:00:57.472Z,13.43
2019-04-16T09:03:29.568Z,13.23
2019-04-16T09:05:57.644Z,13.90
2019-04-16T09:08:31.387Z,13.90
2019-04-16T09:11:03.334Z,15.77
2019-04-16T09:13:36.143Z,13.80
2019-04-16T09:16:05.647Z,14.63
2019-04-16T09:18:36.496Z,13.80
2019-04-16T09:21:06.888Z,14.27
2019-04-16T09:23:38.275Z,14.57
2019-04-16T09:26:15.409Z,14.83
2019-04-16T09:28:44.915Z,14.40
2019-04-16T09:31:32.303Z,14.03
2019-04-16T09:34:09.218Z,14.77
2019-04-16T09:36:40.077Z,13.50
2019-04-16T09:39:20.434Z,15.23
2019-04-16T09:41:50.028Z,14.50
2019-04-16T09:44:19.254Z,14.73
2019-04-16T09:46:51.481Z,15.40
2019-04-16T09:49:19.695Z,14.50
2019-04-16T09:51:50.361Z,14.70
2019-04-16T09:54:20.106Z,14.63
2019-04-16T09:56:49.346Z,14.37
2019-04-16T09:59:20.195Z,14.70
2019-04-16T10:01:54.062Z,16.53
2019-04-16T10:04:23.281Z,14.67
2019-04-16T10:06:54.060Z,15.43
2019-04-16T10:09:23.337Z,17.10
2019-04-16T10:11:52.578Z,16.03
2019-04-16T10:14:21.818Z,15.53
2019-04-16T10:16:51.048Z,15.30
2019-04-16T10:19:21.690Z,15.90
2019-04-16T10:21:54.334Z,15.53
2019-04-16T10:24:29.751Z,14.57
2019-04-16T10:26:59.973Z,15.40
2019-04-16T10:29:29.950Z,14.07
2019-04-16T10:31:59.279Z,14.37
2019-04-16T10:34:28.499Z,16.30
2019-04-16T10:36:57.726Z,16.17
2019-04-16T10:39:34.555Z,15.57
2019-04-16T10:42:20.699Z,15.73
2019-04-16T10:44:57.528Z,15.20
2019-04-16T10:47:35.696Z,15.53
2019-04-16T10:50:07.390Z,16.50
2019-04-16T10:52:44.473Z,16.10
2019-04-16T10:55:18.587Z,17.27
2019-04-16T10:57:48.245Z,16.10
2019-04-16T11:00:28.296Z,16.40
2019-04-16T11:03:05.102Z,15.53
2019-04-16T11:05:45.298Z,16.20
2019-04-16T11:08:14.513Z,16.17
2019-04-16T11:10:43.980Z,15.43
2019-04-16T11:13:14.972Z,17.70
2019-04-16T11:15:44.301Z,16.40
2019-04-16T11:18:13.592Z,16.77
2019-04-16T11:20:42.879Z,16.60
2019-04-16T11:23:15.197Z,16.80
2019-04-16T11:25:44.842Z,16.17
2019-04-16T11:28:14.575Z,15.80
2019-04-16T11:30:48.645Z,16.40
2019-04-16T11:33:16.683Z,17.27
2019-04-16T11:35:45.943Z,16.50
2019-04-16T11:38:17.325Z,17.13
2019-04-16T11:40:46.076Z,17.43
2019-04-16T11:43:15.634Z,16.50
2019-04-16T11:45:44.902Z,17.50
2019-04-16T11:48:14.241Z,17.43
2019-04-16T11:50:43.771Z,16.97
2019-04-16T11:53:12.972Z,18.20
2019-04-16T11:55:42.206Z,17.20
2019-04-16T11:58:13.401Z,18.10
2019-04-16T12:00:53.247Z,16.10
2019-04-16T12:03:26.815Z,16.13
2019-04-16T12:06:03.646Z,15.80
2019-04-16T12:08:46.530Z,17.17
2019-04-16T12:11:26.606Z,15.63
2019-04-16T12:13:57.512Z,16.67
2019-04-16T12:16:28.422Z,18.93
2019-04-16T12:19:08.745Z,16.10
2019-04-16T12:21:42.388Z,18.17
2019-04-16T12:24:18.530Z,16.13
2019-04-16T12:26:51.447Z,16.80
2019-04-16T12:29:31.167Z,17.60
2019-04-16T12:32:07.882Z,16.50
2019-04-16T12:34:38.790Z,16.10
2019-04-16T12:37:09.776Z,15.00
2019-04-16T12:39:52.700Z,15.10
2019-04-16T12:42:29.270Z,14.87
2019-04-16T12:45:00.168Z,14.50
2019-04-16T12:47:37.028Z,14.57
2019-04-16T12:50:17.504Z,15.53
2019-04-16T12:52:48.525Z,16.33
2019-04-16T12:55:31.455Z,15.20
2019-04-16T12:58:06.739Z,16.90
2019-04-16T13:00:43.581Z,15.40
2019-04-16T13:03:20.404Z,12.70
2019-04-16T13:05:54.851Z,12.80
2019-04-16T13:08:26.194Z,13.60
2019-04-16T13:10:59.967Z,13.13
2019-04-16T13:13:30.842Z,12.80
2019-04-16T13:16:17.802Z,12.03
2019-04-16T13:19:07.850Z,12.10
2019-04-16T13:21:41.626Z,10.50
2019-04-16T13:24:18.279Z,12.07
2019-04-16T13:26:49.122Z,11.10
2019-04-16T13:29:18.918Z,11.27
2019-04-16T13:31:48.163Z,12.20
2019-04-16T13:34:18.621Z,12.50
2019-04-16T13:36:51.525Z,12.80
2019-04-16T13:39:23.638Z,13.20
2019-04-16T13:41:52.894Z,13.63
2019-04-16T13:44:23.818Z,12.93
2019-04-16T13:46:53.235Z,13.40
2019-04-16T13:49:24.626Z,14.03
2019-04-16T13:51:57.263Z,12.83
2019-04-16T13:54:43.054Z,14.20
2019-04-16T13:57:16.604Z,13.03
2019-04-16T14:00:06.102Z,12.97
2019-04-16T14:02:55.369Z,12.67
2019-04-16T14:05:24.665Z,13.50
2019-04-16T14:07:53.891Z,13.27
2019-04-16T14:10:23.271Z,14.60
2019-04-16T14:12:52.503Z,13.73
2019-04-16T14:15:31.711Z,13.10
2019-04-16T14:17:59.195Z,12.20
2019-04-16T14:20:25.500Z,12.80
2019-04-16T14:22:54.790Z,14.40
2019-04-16T14:25:23.999Z,14.00
2019-04-16T14:27:55.358Z,14.00
2019-04-16T14:30:30.423Z,14.53
2019-04-16T14:32:59.948Z,13.70
2019-04-16T14:35:33.576Z,12.90
2019-04-16T14:38:02.082Z,14.40
2019-04-16T14:40:31.474Z,13.60
2019-04-16T14:43:00.718Z,13.07
2019-04-16T14:45:53.642Z,13.00
2019-04-16T14:48:09.804Z,13.73
2019-04-16T14:50:40.572Z,13.60
2019-04-16T14:53:10.080Z,14.90
2019-04-16T14:55:43.763Z,14.53
2019-04-16T14:58:30.142Z,13.73
2019-04-16T15:01:01.014Z,13.10
2019-04-16T15:03:48.078Z,13.37
2019-04-16T15:06:35.463Z,14.53
2019-04-16T15:09:26.858Z,12.70
2019-04-16T15:12:01.886Z,13.40
2019-04-16T15:14:36.323Z,13.00
2019-04-16T15:17:12.739Z,14.27
2019-04-16T15:20:00.711Z,13.57
2019-04-16T15:22:37.354Z,14.90
2019-04-16T15:25:21.425Z,15.83
2019-04-16T15:28:01.171Z,14.07
2019-04-16T15:30:37.994Z,15.20
2019-04-16T15:33:25.095Z,14.40
2019-04-16T15:35:59.435Z,14.70
2019-04-16T15:38:45.379Z,14.70
2019-04-16T15:41:25.407Z,13.47
2019-04-16T15:43:56.278Z,15.13
2019-04-16T15:46:27.129Z,14.27
2019-04-16T15:49:10.185Z,14.73
2019-04-16T15:51:44.198Z,14.27
2019-04-16T15:54:13.599Z,14.27
2019-04-16T15:56:47.632Z,13.53
2019-04-16T15:59:28.384Z,13.40
2019-04-16T16:02:15.885Z,12.50
2019-04-16T16:04:46.762Z,13.07
2019-04-16T16:07:16.259Z,13.00
2019-04-16T16:09:47.394Z,12.63
2019-04-16T16:12:22.085Z,12.97
2019-04-16T16:14:49.188Z,12.23
2019-04-16T16:17:19.443Z,12.50
2019-04-16T16:19:49.418Z,12.30
2019-04-16T16:22:18.651Z,12.47
2019-04-16T16:24:47.888Z,11.70
2019-04-16T16:27:17.118Z,12.20
2019-04-16T16:29:46.657Z,11.47
2019-04-16T16:32:15.940Z,11.63
2019-04-16T16:34:45.147Z,12.60
2019-04-16T16:37:14.393Z,12.60
2019-04-16T16:39:43.596Z,11.67
2019-04-16T16:42:12.827Z,11.43
2019-04-16T16:44:42.132Z,11.03
2019-04-16T16:47:28.243Z,11.00
2019-04-16T16:49:57.521Z,10.60
2019-04-16T16:52:49.842Z,12.27
2019-04-16T16:55:28.560Z,11.60
2019-04-16T16:58:08.439Z,11.93
2019-04-16T17:00:56.376Z,11.80
2019-04-16T17:03:36.062Z,12.50
2019-04-16T17:06:06.671Z,12.33
2019-04-16T17:08:35.911Z,13.17
2019-04-16T17:11:16.097Z,13.30
2019-04-16T17:13:36.050Z,13.80
2019-04-16T17:16:05.259Z,7.83
2019-04-16T17:18:34.507Z,5.47
2019-04-16T17:21:03.700Z,4.80
2019-04-16T17:23:32.919Z,5.33
2019-04-16T17:26:02.503Z,4.57
2019-04-16T17:28:31.782Z,4.20
2019-04-16T17:31:01.318Z,4.43
2019-04-16T17:33:30.534Z,5.00
2019-04-16T17:35:59.761Z,4.60
2019-04-16T17:38:28.973Z,5.10
2019-04-16T17:41:01.298Z,4.30
2019-04-16T17:43:38.479Z,5.03
2019-04-16T17:46:25.930Z,4.83
2019-04-16T17:48:59.719Z,4.70
2019-04-16T17:51:42.722Z,4.70
2019-04-16T17:54:19.720Z,4.90
2019-04-16T17:57:06.795Z,5.23
2019-04-16T17:59:37.655Z,5.40
2019-04-16T18:02:27.718Z,5.57
2019-04-16T18:05:13.939Z,4.40
2019-04-16T18:07:45.027Z,4.90
2019-04-16T18:10:16.290Z,4.90
2019-04-16T18:12:59.395Z,4.50
2019-04-16T18:15:46.894Z,4.90
2019-04-16T18:18:17.864Z,4.77
2019-04-16T18:20:58.562Z,4.60
2019-04-16T18:23:36.024Z,5.17
2019-04-16T18:26:24.856Z,4.20
2019-04-16T18:29:07.919Z,4.20
2019-04-16T18:31:41.472Z,3.70
2019-04-16T18:34:15.279Z,4.37
2019-04-16T18:36:49.144Z,3.77
2019-04-16T18:39:37.505Z,3.87
2019-04-16T18:42:07.955Z,3.70
2019-04-16T18:44:38.791Z,3.33
2019-04-16T18:47:12.634Z,3.53
2019-04-16T18:49:43.203Z,4.10
2019-04-16T18:52:12.439Z,4.30
2019-04-16T18:54:41.659Z,3.93
2019-04-16T18:57:11.471Z,3.70
2019-04-16T18:59:40.688Z,5.07
2019-04-16T19:02:11.155Z,4.13
2019-04-16T19:04:40.718Z,4.33
2019-04-16T19:07:10.219Z,4.10
2019-04-16T19:09:39.438Z,4.20
2019-04-16T19:12:08.747Z,4.10
2019-04-16T19:14:37.962Z,3.10
2019-04-16T19:17:07.175Z,3.83
2019-04-16T19:19:36.401Z,2.93
2019-04-16T19:22:05.599Z,3.70
2019-04-16T19:24:35.122Z,3.00
2019-04-16T19:27:04.921Z,2.80
2019-04-16T19:29:34.231Z,2.87
2019-04-16T19:32:03.699Z,2.43
2019-04-16T19:34:33.256Z,3.10
2019-04-16T19:37:02.481Z,2.87
2019-04-16T19:39:34.205Z,2.63
2019-04-16T19:42:03.491Z,2.50
2019-04-16T19:44:33.622Z,3.03
2019-04-16T19:47:04.265Z,3.07
2019-04-16T19:49:33.471Z,2.60
2019-04-16T19:52:02.706Z,2.83
2019-04-16T19:54:31.966Z,2.80
2019-04-16T19:57:01.486Z,3.23
2019-04-16T19:59:30.877Z,3.00
2019-04-16T20:02:01.754Z,2.60
2019-04-16T20:04:31.011Z,2.80
2019-04-16T20:07:01.968Z,3.00
2019-04-16T20:09:31.554Z,3.27
2019-04-16T20:12:01.066Z,3.07
2019-04-16T20:14:35.357Z,3.33
2019-04-16T20:17:02.361Z,3.27
2019-04-16T20:19:31.603Z,2.90
2019-04-16T20:22:01.112Z,3.00
2019-04-16T20:24:30.475Z,3.23
2019-04-16T20:27:04.921Z,3.33
2019-04-16T20:29:31.669Z,3.10
2019-04-16T20:32:00.867Z,2.80
2019-04-16T20:34:30.095Z,3.13
2019-04-16T20:36:59.319Z,3.20
2019-04-16T20:39:28.538Z,2.67
2019-04-16T20:41:59.669Z,2.83
2019-04-16T20:44:29.102Z,2.70
2019-04-16T20:47:02.358Z,2.90
2019-04-16T20:49:29.223Z,2.63
2019-04-16T20:52:00.564Z,2.83
2019-04-16T20:54:30.825Z,2.80
2019-04-16T20:57:00.039Z,3.20
2019-04-16T20:59:29.259Z,2.60
2019-04-16T21:01:59.523Z,2.97
2019-04-16T21:04:28.739Z,2.80
2019-04-16T21:06:57.939Z,2.30
2019-04-16T21:09:30.119Z,2.60
2019-04-16T21:11:58.056Z,2.63
2019-04-16T21:14:27.289Z,2.57
2019-04-16T21:16:58.046Z,2.40
2019-04-16T21:19:46.452Z,2.77
2019-04-16T21:22:18.383Z,2.50
2019-04-16T21:24:47.977Z,2.63
2019-04-16T21:27:17.181Z,2.40
2019-04-16T21:29:46.569Z,2.20
2019-04-16T21:32:23.395Z,2.40
2019-04-16T21:35:06.268Z,2.47
2019-04-16T21:37:48.083Z,2.30
2019-04-16T21:40:17.320Z,2.30
2019-04-16T21:42:46.520Z,1.87
2019-04-16T21:45:16.498Z,2.10
2019-04-16T21:47:46.534Z,2.27
2019-04-16T21:50:16.277Z,2.80
2019-04-16T21:52:46.345Z,2.30
2019-04-16T21:55:15.540Z,2.67
2019-04-16T21:57:46.071Z,2.50
2019-04-16T22:00:36.077Z,2.20
2019-04-16T22:03:11.500Z,2.23
2019-04-16T22:05:40.801Z,2.47
2019-04-16T22:08:10.022Z,2.77
2019-04-16T22:10:39.238Z,2.90
2019-04-16T22:13:08.439Z,2.20
2019-04-16T22:15:37.666Z,2.40
2019-04-16T22:18:08.759Z,2.47
2019-04-16T22:20:37.775Z,2.53
2019-04-16T22:23:07.029Z,2.50
2019-04-16T22:25:36.266Z,2.30
2019-04-16T22:28:05.490Z,2.27
2019-04-16T22:30:34.707Z,2.80
2019-04-16T22:33:07.038Z,2.33
2019-04-16T22:35:36.878Z,2.60
2019-04-16T22:38:06.482Z,2.63
2019-04-16T22:40:37.414Z,2.67
2019-04-16T22:43:09.099Z,3.20
2019-04-16T22:45:42.771Z,2.50
2019-04-16T22:48:11.978Z,2.40
2019-04-16T22:50:41.209Z,2.83
2019-04-16T22:53:10.678Z,2.73
2019-04-16T22:55:42.578Z,2.30
2019-04-16T22:58:12.469Z,2.20
2019-04-16T23:00:46.352Z,2.70
2019-04-16T23:03:16.578Z,2.47
2019-04-16T23:05:46.462Z,2.40
2019-04-16T23:08:15.683Z,2.60
2019-04-16T23:10:45.191Z,2.43
2019-04-16T23:13:14.414Z,2.67
2019-04-16T23:15:43.684Z,2.43
2019-04-16T23:18:17.205Z,2.50
2019-04-16T23:20:43.975Z,2.90
2019-04-16T23:23:18.041Z,2.30
2019-04-16T23:25:44.387Z,2.40
2019-04-16T23:28:14.658Z,2.43
2019-04-16T23:30:43.917Z,2.50
2019-04-16T23:33:13.131Z,2.60
2019-04-16T23:35:44.394Z,3.13
2019-04-16T23:38:13.245Z,2.70
2019-04-16T23:40:43.850Z,2.40
2019-04-16T23:43:27.216Z,2.80
2019-04-16T23:46:07.354Z,2.80
2019-04-16T23:48:44.731Z,2.40
2019-04-16T23:51:16.326Z,2.43
2019-04-16T23:54:03.814Z,2.63
2019-04-16T23:56:34.669Z,2.30
2019-04-16T23:59:06.641Z,2.87
